首页
METAR-TAF:

METAR-TAF

机场 :

豪尔赫·查韦斯国际机场

利馬, 秘鲁

纬度: 12-00S, 经度: 077-07W, 海拔: 12米

当前天气观测

该预报发布于21分钟前的10:00 UTC
风速6节,风向
温度 15°C
湿度 94%
气压 1015 hPa
能見度: 8000
阴天层高于1000英尺

METAR: SPJC 301000Z 18006KT 8000 OVC010 15/14 Q1015 NOSIG RMK PPTRZ

时间: 05:21 (10:21 UTC)

预报

该预报发布于5小时和21分钟前的05:00 UTC
预报有效从30日的 06点(UTC)到 31日的 06点(UTC)
风速6节,风向
能見度: 3000
阴天层高于500英尺
轻雾
短暂存在
从 30日的 09点(UTC)到 30日的 12点(UTC)
能見度: 2000
阴天层高于300英尺
成为
从 30日的 14点(UTC)到 30日的 16点(UTC)
能見度: 6000
成为
从 30日的 17点(UTC)到 30日的 19点(UTC)
多云层高于1200英尺
成为
从 31日的 02点(UTC)到 31日的 04点(UTC)
阴天层高于800英尺

TAF: SPJC 300500Z 3006/3106 17006KT 3000 BR OVC005 TX18/3019Z TN16/3011Z TEMPO 3009/3012 2000 OVC003 BECMG 3014/3016 6000 NSW BECMG 3017/3019 BKN012 BECMG 3102/3104 OVC008

超过4000个机场的气象观测和天气预报(METAR&TAF报告)。

可查询的气象台以黄色和红色小点在地图上表示。

将鼠标移到小点上方,可查看气象台名称。

然后点击查看天气观测和预报。

如需切换地图:点击带黑十字的绿色按钮放大地图;点击带横线的绿色按钮缩小地图;或者点击绿色箭头查看邻近地区的地图。


METAR-TAF: